Terminal Aerodrome Forecast
Issued by NWS Boise, ID

Home | Current Version | Previous Version | Text Only | Print | Product List | Glossary On
Versions: 1 2 3 4 5 6 7 8 9 10 11 12 13 14 15 16 17 18 19 20 21 22 23 24
000
FTUS45 KBOI 240520
TAFBNO
TAF
KBNO 240520Z 2406/2506 VRB10G20KT P6SM VCSH SCT120 BKN200
     FM240800 VRB06KT P6SM SCT150
     FM242100 VRB10G20KT P6SM VCTS SCT100CB BKN200
     FM250000 27010KT P6SM VCSH BKN100=

USA.gov is the U.S. government's official web portal to all federal, state and local government web resources and services.